Time;durP1;ratioP1;P1;durP2;ratioP2;P2;SDS_P1;SDS_P2;PMS_P1;PMS_P2;Temp;Humidity;BMP_temperature;BMP_pressure;BME280_temperature;BME280_humidity;BME280_pressure;Samples;Min_cycle;Max_cycle;Signal;HPM_P1;HPM_P2
2023/03/19 00:02:03;;;;;;;0.50;0.50;;;;;;;5.89;57.72;97477.22;4984357;28;20070;-57
2023/03/19 00:04:42;;;;;;;0.50;0.50;;;;;;;5.80;58.10;97472.84;4984761;28;20485;-64
2023/03/19 00:07:10;;;;;;;0.50;0.50;;;;;;;5.95;57.64;97469.56;4988274;28;20057;-63
2023/03/19 00:09:37;;;;;;;0.50;0.50;;;;;;;5.84;58.28;97457.31;5002473;28;20085;-64
2023/03/19 00:12:04;;;;;;;0.50;0.50;;;;;;;5.59;58.54;97471.94;5005611;28;20081;-57
2023/03/19 00:14:30;;;;;;;0.50;0.50;;;;;;;5.12;60.58;97462.00;5007462;28;20167;-57
2023/03/19 00:16:57;;;;;;;0.40;0.40;;;;;;;5.42;59.72;97466.50;5007574;28;20046;-63
2023/03/19 00:19:24;;;;;;;0.40;0.40;;;;;;;5.12;59.03;97409.84;5007460;28;20093;-57
2023/03/19 00:21:51;;;;;;;0.40;0.40;;;;;;;5.38;59.67;97427.06;5006381;28;20092;-64
2023/03/19 00:24:18;;;;;;;0.50;0.50;;;;;;;5.30;60.54;97458.91;5006264;28;20448;-64
2023/03/19 00:26:45;;;;;;;0.50;0.50;;;;;;;4.97;61.20;97404.84;5007518;28;20875;-57
2023/03/19 00:29:12;;;;;;;0.40;0.40;;;;;;;4.86;62.29;97463.97;5007351;28;20045;-63
2023/03/19 00:31:40;;;;;;;0.50;0.50;;;;;;;4.95;62.07;97457.34;5007643;28;20058;-57
2023/03/19 00:34:08;;;;;;;0.40;0.40;;;;;;;5.01;61.84;97455.25;5006896;28;20049;-64
2023/03/19 00:36:35;;;;;;;0.50;0.50;;;;;;;4.63;62.10;97401.00;5007374;28;20144;-58
2023/03/19 00:39:03;;;;;;;0.40;0.40;;;;;;;5.02;62.21;97434.88;5005834;28;20076;-57
2023/03/19 00:41:30;;;;;;;0.45;0.45;;;;;;;5.13;62.08;97452.63;5007377;28;20116;-63
2023/03/19 00:43:57;;;;;;;0.50;0.50;;;;;;;4.51;62.49;97367.94;5005019;28;20077;-58
2023/03/19 00:46:25;;;;;;;0.50;0.50;;;;;;;5.01;63.00;97467.00;5006787;28;20116;-56
2023/03/19 00:48:54;;;;;;;0.40;0.40;;;;;;;5.00;62.68;97470.09;5007286;28;20471;-63
2023/03/19 00:51:22;;;;;;;0.50;0.50;;;;;;;5.13;61.55;97458.13;5007490;28;20054;-56
2023/03/19 00:53:50;;;;;;;0.50;0.50;;;;;;;4.99;62.06;97457.50;5006461;28;20098;-57
2023/03/19 00:56:18;;;;;;;0.40;0.40;;;;;;;4.97;61.92;97448.78;5007350;28;20105;-57
2023/03/19 00:58:45;;;;;;;0.40;0.40;;;;;;;4.80;61.84;97424.09;5005833;28;20042;-63
2023/03/19 01:01:15;;;;;;;0.50;0.50;;;;;;;4.82;63.06;97452.03;5004739;28;20050;-63
2023/03/19 01:03:42;;;;;;;0.45;0.45;;;;;;;3.55;64.05;97311.75;5005759;28;20056;-64
2023/03/19 01:06:09;;;;;;;0.50;0.50;;;;;;;4.80;63.32;97457.03;5006046;28;20173;-56
2023/03/19 01:08:35;;;;;;;0.40;0.40;;;;;;;4.80;63.45;97471.56;5015412;28;20053;-57
2023/03/19 01:11:08;;;;;;;0.47;0.47;;;;;;;4.54;64.42;97446.84;5006143;28;20149;-58
2023/03/19 01:13:35;;;;;;;0.50;0.50;;;;;;;4.16;64.90;97391.00;5006488;28;20077;-64
2023/03/19 01:16:02;;;;;;;0.40;0.40;;;;;;;4.47;64.01;97426.53;5007131;28;20053;-57
2023/03/19 01:18:30;;;;;;;0.47;0.47;;;;;;;4.25;64.58;97421.97;5006747;28;20077;-57
2023/03/19 01:20:57;;;;;;;0.50;0.50;;;;;;;4.58;64.59;97450.56;5005502;28;20157;-57
2023/03/19 01:23:23;;;;;;;0.50;0.50;;;;;;;4.70;64.58;97455.41;4998772;28;20257;-56
2023/03/19 01:25:51;;;;;;;0.50;0.50;;;;;;;4.68;64.41;97459.63;4986600;28;20062;-57
2023/03/19 01:28:18;;;;;;;0.40;0.40;;;;;;;4.55;64.67;97462.16;4986828;28;20054;-64
2023/03/19 01:30:45;;;;;;;0.40;0.40;;;;;;;4.67;64.21;97467.03;4987135;28;20043;-64
2023/03/19 01:33:11;;;;;;;0.40;0.40;;;;;;;4.65;63.78;97551.59;4986724;28;20051;-57
2023/03/19 01:35:38;;;;;;;0.40;0.40;;;;;;;4.57;65.06;97461.84;4986233;28;20051;-63
2023/03/19 01:38:06;;;;;;;0.50;0.50;;;;;;;4.73;64.51;97459.47;4986899;28;20065;-63
2023/03/19 01:40:33;;;;;;;0.40;0.40;;;;;;;4.76;64.69;97464.31;4985939;28;20138;-63
2023/03/19 01:43:14;;;;;;;0.40;0.40;;;;;;;4.76;64.97;97475.28;4986607;28;20054;-63
2023/03/19 01:45:42;;;;;;;0.40;0.40;;;;;;;4.77;64.48;97471.41;4985257;28;20078;-58
2023/03/19 01:48:40;;;;;;;0.40;0.40;;;;;;;4.87;64.79;97460.09;4986376;28;20058;-63
2023/03/19 01:51:10;;;;;;;0.50;0.50;;;;;;;4.93;63.33;97480.75;4982408;28;20058;-61
2023/03/19 01:53:40;;;;;;;0.50;0.50;;;;;;;4.83;63.29;97459.13;4986525;28;20077;-64
2023/03/19 01:56:15;;;;;;;0.40;0.40;;;;;;;4.93;64.13;97469.78;4986272;28;20515;-63
2023/03/19 01:58:45;;;;;;;0.40;0.40;;;;;;;5.05;63.33;97467.19;4986373;28;20046;-63
2023/03/19 02:01:12;;;;;;;0.47;0.47;;;;;;;4.28;63.47;97361.00;4986382;28;20077;-57
2023/03/19 02:03:40;;;;;;;0.50;0.50;;;;;;;5.08;63.25;97483.00;4986376;28;20057;-62
2023/03/19 02:06:09;;;;;;;0.50;0.50;;;;;;;5.11;63.43;97471.38;5001082;28;20057;-57
2023/03/19 02:08:38;;;;;;;0.40;0.40;;;;;;;5.14;63.24;97470.75;4998930;28;20049;-57
2023/03/19 02:11:05;;;;;;;0.40;0.40;;;;;;;4.03;63.50;97323.41;5004440;28;20054;-56
2023/03/19 02:13:33;;;;;;;0.50;0.50;;;;;;;4.90;64.40;97470.44;5004177;28;20523;-63
2023/03/19 02:16:00;;;;;;;0.40;0.40;;;;;;;4.98;63.84;97455.91;5005613;28;20436;-63
2023/03/19 02:18:27;;;;;;;0.47;0.47;;;;;;;5.11;64.25;97488.66;5005385;28;20061;-57
2023/03/19 02:21:07;;;;;;;0.40;0.40;;;;;;;4.26;64.77;97382.47;5005109;28;20143;-64
2023/03/19 02:23:57;;;;;;;0.40;0.40;;;;;;;4.91;64.23;97466.53;5005082;28;20053;-57
2023/03/19 02:26:27;;;;;;;0.40;0.40;;;;;;;4.70;65.23;97422.47;5005358;28;20049;-59
2023/03/19 02:28:54;;;;;;;0.40;0.40;;;;;;;5.16;64.87;97473.94;5004948;28;20517;-57
2023/03/19 02:31:21;;;;;;;0.40;0.40;;;;;;;5.25;65.07;97472.03;5020271;28;20068;-57
2023/03/19 02:33:57;;;;;;;0.50;0.50;;;;;;;5.35;63.89;97466.16;5019579;28;20053;-57
2023/03/19 02:36:27;;;;;;;0.50;0.50;;;;;;;5.32;63.78;97458.59;5005024;28;20108;-63
2023/03/19 02:38:56;;;;;;;0.50;0.50;;;;;;;5.47;63.44;97477.31;5005160;28;20104;-63
2023/03/19 02:41:24;;;;;;;0.50;0.50;;;;;;;5.44;62.40;97456.78;5005033;28;20050;-63
2023/03/19 02:43:52;;;;;;;0.50;0.50;;;;;;;5.59;62.23;97480.19;5005105;28;20421;-56
2023/03/19 02:46:18;;;;;;;0.50;0.50;;;;;;;5.58;62.13;97481.31;5005155;28;20112;-63
2023/03/19 02:48:45;;;;;;;0.47;0.47;;;;;;;5.65;62.28;97476.09;5004881;28;20064;-56
2023/03/19 02:51:12;;;;;;;0.50;0.50;;;;;;;5.63;62.79;97473.69;5005111;28;20107;-63
2023/03/19 02:53:39;;;;;;;0.50;0.50;;;;;;;5.64;62.64;97480.00;5005399;28;20050;-63
2023/03/19 02:56:06;;;;;;;0.50;0.50;;;;;;;5.52;62.95;97449.63;5003519;28;20512;-63
2023/03/19 02:58:32;;;;;;;0.50;0.50;;;;;;;5.76;62.59;97474.63;5004740;28;20631;-58
2023/03/19 03:00:59;;;;;;;0.50;0.50;;;;;;;5.94;61.16;97478.97;5004780;28;20058;-64
2023/03/19 03:03:26;;;;;;;0.52;0.52;;;;;;;5.97;60.88;97472.81;5004712;28;20152;-57
2023/03/19 03:05:53;;;;;;;0.50;0.50;;;;;;;5.94;61.50;97478.97;5002888;28;20375;-63
2023/03/19 03:08:19;;;;;;;0.50;0.50;;;;;;;5.84;62.42;97468.31;5004407;28;20061;-64
2023/03/19 03:10:46;;;;;;;0.50;0.50;;;;;;;5.89;62.54;97468.13;5003464;28;20076;-58
2023/03/19 03:13:13;;;;;;;0.50;0.50;;;;;;;5.60;62.47;97432.31;4987015;28;20054;-63
2023/03/19 03:15:40;;;;;;;0.50;0.50;;;;;;;6.05;62.76;97488.44;5003285;28;20286;-63
2023/03/19 03:18:07;;;;;;;0.50;0.50;;;;;;;5.81;62.61;97452.47;5004895;28;20042;-63
2023/03/19 03:20:33;;;;;;;0.50;0.50;;;;;;;6.03;61.43;97474.22;5003899;28;20045;-57
2023/03/19 03:23:01;;;;;;;0.50;0.50;;;;;;;6.16;62.24;97493.22;5004679;28;20650;-63
2023/03/19 03:25:28;;;;;;;0.50;0.50;;;;;;;5.68;63.51;97491.94;5004210;28;20104;-57
2023/03/19 03:27:54;;;;;;;0.50;0.50;;;;;;;4.01;63.09;97180.44;5004081;28;20085;-59
2023/03/19 03:30:21;;;;;;;0.50;0.50;;;;;;;5.91;63.85;97479.63;5004748;28;20053;-64
2023/03/19 03:32:47;;;;;;;0.50;0.50;;;;;;;5.86;63.25;97460.56;5004542;28;20077;-58
2023/03/19 03:35:20;;;;;;;0.50;0.50;;;;;;;6.10;62.09;97488.28;5004274;28;20054;-57
2023/03/19 03:37:50;;;;;;;0.50;0.50;;;;;;;5.53;62.22;97374.34;5004452;28;20053;-57
2023/03/19 03:40:17;;;;;;;0.50;0.50;;;;;;;5.71;62.75;97419.81;5003902;28;20065;-64
2023/03/19 03:42:44;;;;;;;0.50;0.50;;;;;;;5.99;63.27;97471.31;5004426;28;20058;-64
2023/03/19 03:45:11;;;;;;;0.50;0.50;;;;;;;5.14;62.86;97328.75;5004053;28;20128;-57
2023/03/19 03:47:38;;;;;;;0.50;0.50;;;;;;;6.02;63.34;97483.63;5007748;28;20112;-57
2023/03/19 03:50:06;;;;;;;0.50;0.50;;;;;;;5.35;63.60;97378.28;5006766;28;20050;-64
2023/03/19 03:52:33;;;;;;;0.50;0.50;;;;;;;6.05;63.45;97481.00;5006237;28;20486;-57
2023/03/19 03:55:00;;;;;;;0.50;0.50;;;;;;;6.15;63.32;97490.81;5008298;28;20054;-63
2023/03/19 03:57:27;;;;;;;0.50;0.50;;;;;;;6.23;63.16;97478.19;5008237;28;20049;-56
2023/03/19 03:59:54;;;;;;;0.50;0.50;;;;;;;6.07;63.68;97472.41;5008095;28;20531;-63
2023/03/19 04:02:20;;;;;;;0.57;0.57;;;;;;;6.16;63.92;97475.94;5008144;28;20061;-64
2023/03/19 04:04:47;;;;;;;0.50;0.50;;;;;;;6.26;63.27;97474.75;5008079;28;20140;-63
2023/03/19 04:07:14;;;;;;;0.60;0.60;;;;;;;6.12;64.10;97475.78;5007858;28;20594;-63
2023/03/19 04:09:41;;;;;;;0.50;0.50;;;;;;;6.17;64.29;97477.56;5002283;28;20058;-64
2023/03/19 04:12:08;;;;;;;0.50;0.50;;;;;;;5.47;64.55;97381.16;4988479;28;20061;-64
2023/03/19 04:14:35;;;;;;;0.50;0.50;;;;;;;5.08;68.71;97472.03;4988343;28;20058;-63
2023/03/19 04:17:02;;;;;;;0.50;0.50;;;;;;;5.56;67.58;97494.56;4988446;28;20051;-57
2023/03/19 04:19:28;;;;;;;0.50;0.50;;;;;;;5.74;66.50;97482.38;4988254;28;20070;-59
2023/03/19 04:21:55;;;;;;;0.50;0.50;;;;;;;5.24;65.72;97382.50;4988193;28;20058;-63
2023/03/19 04:24:22;;;;;;;0.50;0.50;;;;;;;5.80;65.54;97464.59;4988284;28;20078;-57
2023/03/19 04:26:49;;;;;;;0.50;0.50;;;;;;;5.94;65.78;97478.97;4987819;28;20120;-56
2023/03/19 04:29:17;;;;;;;0.50;0.50;;;;;;;5.35;65.49;97378.28;4987979;28;20058;-64
2023/03/19 04:31:44;;;;;;;0.50;0.50;;;;;;;6.05;65.45;97480.22;5002510;28;20525;-63
2023/03/19 04:34:11;;;;;;;0.50;0.50;;;;;;;5.94;65.57;97456.97;4988050;28;20077;-63
2023/03/19 04:36:38;;;;;;;0.50;0.50;;;;;;;6.10;66.08;97482.78;4987681;28;20050;-63
2023/03/19 04:39:05;;;;;;;0.50;0.50;;;;;;;6.24;65.27;97491.59;4988117;28;20348;-63
2023/03/19 04:41:32;;;;;;;0.50;0.50;;;;;;;6.16;65.67;97497.94;4987389;28;20058;-63
2023/03/19 04:43:58;;;;;;;0.50;0.50;;;;;;;6.24;65.07;97477.84;4987798;28;20057;-63
2023/03/19 04:46:25;;;;;;;0.50;0.50;;;;;;;6.41;65.29;97499.75;5002612;28;20129;-57
2023/03/19 04:48:51;;;;;;;0.50;0.50;;;;;;;6.50;65.12;97507.94;4987335;28;20050;-57
2023/03/19 04:51:20;;;;;;;0.50;0.50;;;;;;;6.53;64.67;97499.84;4987814;28;20046;-63
2023/03/19 04:53:47;;;;;;;0.60;0.60;;;;;;;6.51;65.13;97498.56;4987321;28;20080;-58
2023/03/19 04:56:15;;;;;;;0.50;0.50;;;;;;;6.59;64.67;97501.25;5002426;28;20046;-57
2023/03/19 04:58:42;;;;;;;0.52;0.52;;;;;;;6.49;64.67;97487.91;4986217;28;20202;-57
2023/03/19 05:01:08;;;;;;;0.60;0.60;;;;;;;6.56;64.52;97518.44;5002350;28;20054;-63
2023/03/19 05:03:35;;;;;;;0.50;0.50;;;;;;;6.54;65.18;97515.22;4987225;28;20484;-58
2023/03/19 05:06:02;;;;;;;0.60;0.60;;;;;;;6.61;64.95;97517.47;4986978;28;20057;-57
2023/03/19 05:08:29;;;;;;;0.50;0.50;;;;;;;6.55;64.41;97519.59;4995059;28;20053;-59
2023/03/19 05:10:56;;;;;;;0.60;0.60;;;;;;;6.48;64.09;97502.00;5007305;28;20141;-56
2023/03/19 05:13:22;;;;;;;0.50;0.50;;;;;;;6.60;64.58;97508.38;5006967;28;20104;-59
2023/03/19 05:15:52;;;;;;;0.50;0.50;;;;;;;6.62;63.75;97506.13;5006854;28;20053;-63
2023/03/19 05:18:19;;;;;;;0.60;0.60;;;;;;;6.73;64.02;97507.34;5006644;28;20633;-55
2023/03/19 05:20:47;;;;;;;0.50;0.50;;;;;;;6.45;63.34;97456.66;5006481;28;20065;-63
2023/03/19 05:23:13;;;;;;;0.60;0.60;;;;;;;6.98;63.02;97514.59;5005076;28;20119;-63
2023/03/19 05:25:40;;;;;;;0.60;0.60;;;;;;;6.30;62.70;97404.19;5004815;28;20104;-57
2023/03/19 05:28:07;;;;;;;0.60;0.60;;;;;;;7.07;62.43;97515.34;5006540;28;20136;-58
2023/03/19 05:30:34;;;;;;;0.60;0.60;;;;;;;6.55;62.56;97416.94;5006290;28;20065;-63
2023/03/19 05:33:01;;;;;;;0.60;0.60;;;;;;;6.94;61.88;97463.28;5006407;28;20137;-63
2023/03/19 05:35:29;;;;;;;0.60;0.60;;;;;;;7.33;61.00;97504.88;5005076;28;20053;-63
2023/03/19 05:37:56;;;;;;;0.60;0.60;;;;;;;7.44;61.24;97511.63;5005994;28;20579;-57
2023/03/19 05:40:23;;;;;;;0.60;0.60;;;;;;;7.58;61.10;97511.31;5005991;28;20091;-63
2023/03/19 05:42:50;;;;;;;0.70;0.70;;;;;;;7.59;60.73;97480.66;5004384;28;20512;-63
2023/03/19 05:45:17;;;;;;;0.60;0.60;;;;;;;7.92;59.30;97510.94;5005628;28;20053;-58
2023/03/19 05:47:47;;;;;;;0.70;0.70;;;;;;;7.93;59.07;97517.28;5005378;28;20057;-62
2023/03/19 05:50:14;;;;;;;0.63;0.63;;;;;;;8.11;59.12;97519.47;5006152;28;20046;-62
2023/03/19 05:52:41;;;;;;;0.63;0.63;;;;;;;8.28;58.56;97518.50;5005599;28;20065;-63
2023/03/19 05:55:08;;;;;;;0.68;0.68;;;;;;;8.43;57.42;97515.06;5005678;28;20449;-58
2023/03/19 05:57:35;;;;;;;0.70;0.70;;;;;;;8.56;56.98;97513.91;5005943;28;20046;-62
2023/03/19 06:00:05;;;;;;;0.70;0.70;;;;;;;8.70;56.55;97514.34;5005605;28;20054;-57
2023/03/19 06:02:33;;;;;;;0.60;0.60;;;;;;;7.55;56.84;97391.53;5005057;28;20057;-57
2023/03/19 06:05:00;;;;;;;0.70;0.70;;;;;;;7.59;57.53;97425.50;5005401;28;20058;-56
2023/03/19 06:07:27;;;;;;;0.70;0.70;;;;;;;8.48;57.07;97523.09;5005509;28;20119;-58
2023/03/19 06:09:54;;;;;;;0.68;0.68;;;;;;;7.85;56.13;97399.56;5011984;28;20081;-56
2023/03/19 06:12:20;;;;;;;0.70;0.70;;;;;;;8.81;55.45;97521.84;5014624;28;20077;-56
2023/03/19 06:14:47;;;;;;;0.70;0.70;;;;;;;8.89;54.48;97518.16;5005733;28;20163;-55
2023/03/19 06:17:14;;;;;;;0.77;0.77;;;;;;;9.01;54.22;97520.06;5006128;28;20054;-58
2023/03/19 06:19:40;;;;;;;0.75;0.75;;;;;;;9.06;53.32;97494.94;5005075;28;20050;-62
2023/03/19 06:22:07;;;;;;;0.70;0.70;;;;;;;9.46;52.08;97517.88;5005588;28;20050;-56
2023/03/19 06:24:34;;;;;;;0.80;0.80;;;;;;;9.59;52.22;97524.97;5005124;28;20068;-62
2023/03/19 06:27:01;;;;;;;0.80;0.80;;;;;;;9.50;50.82;97485.56;5005549;28;20077;-62
2023/03/19 06:29:28;;;;;;;0.80;0.80;;;;;;;9.67;50.02;97526.78;5004901;28;20584;-57
2023/03/19 06:31:54;;;;;;;0.82;0.82;;;;;;;9.88;50.01;97515.50;5019926;28;20053;-57
2023/03/19 06:34:24;;;;;;;0.77;0.77;;;;;;;10.08;49.89;97520.81;5004672;28;20100;-64
2023/03/19 06:36:52;;;;;;;0.80;0.80;;;;;;;10.03;49.38;97545.97;5005401;28;20057;-57
2023/03/19 06:39:19;;;;;;;0.88;0.88;;;;;;;10.46;49.52;97509.91;5004593;28;20148;-57
2023/03/19 06:41:45;;;;;;;0.80;0.80;;;;;;;10.60;49.32;97510.28;5005200;28;20492;-63
2023/03/19 06:44:12;;;;;;;0.80;0.80;;;;;;;10.77;48.53;97513.81;5004353;28;20504;-57
2023/03/19 06:46:39;;;;;;;0.90;0.90;;;;;;;11.06;48.65;97513.31;5004655;28;20155;-63
2023/03/19 06:49:06;;;;;;;0.90;0.90;;;;;;;11.27;47.96;97522.13;5004554;28;20550;-63
2023/03/19 06:51:32;;;;;;;1.00;1.00;;;;;;;11.45;47.35;97512.19;5004673;28;20524;-57
2023/03/19 06:53:59;;;;;;;0.93;0.93;;;;;;;11.65;47.48;97513.84;5004837;28;20137;-64
2023/03/19 06:56:26;;;;;;;1.00;1.00;;;;;;;11.44;46.57;97466.22;5004904;28;20150;-57
2023/03/19 06:58:52;;;;;;;1.00;1.00;;;;;;;11.92;46.76;97510.00;4986983;28;23491;-63
2023/03/19 07:01:20;;;;;;;1.00;1.00;;;;;;;11.97;46.19;97516.06;4985158;28;20046;-62
2023/03/19 07:03:47;;;;;;;1.00;1.00;;;;;;;12.19;45.71;97520.03;4983472;28;20133;-57
2023/03/19 07:06:13;;;;;;;1.02;1.02;;;;;;;11.13;45.45;97422.00;4983619;28;20058;-56
2023/03/19 07:08:44;;;;;;;1.10;1.10;;;;;;;12.22;45.69;97512.97;4999474;28;20054;-56
2023/03/19 07:11:12;;;;;;;1.00;1.00;;;;;;;12.15;45.79;97510.84;4999771;28;20057;-62
2023/03/19 07:13:39;;;;;;;0.90;0.90;;;;;;;11.81;45.64;97447.94;4984302;28;20054;-56
2023/03/19 07:16:06;;;;;;;1.00;1.00;;;;;;;12.06;45.85;97515.84;4984659;28;20104;-61
2023/03/19 07:18:33;;;;;;;1.00;1.00;;;;;;;12.24;46.37;97530.84;4964826;28;20990;-62
2023/03/19 07:21:00;;;;;;;1.08;1.08;;;;;;;11.64;46.70;97460.31;4979518;28;20054;-57
2023/03/19 07:23:26;;;;;;;1.00;1.00;;;;;;;12.13;46.07;97502.09;4965198;28;20117;-57
2023/03/19 07:25:53;;;;;;;1.00;1.00;;;;;;;12.04;45.69;97498.75;4964898;28;20089;-56
2023/03/19 07:28:20;;;;;;;0.93;0.93;;;;;;;12.36;44.44;97502.88;4964942;28;20079;-63
2023/03/19 07:30:47;;;;;;;1.10;1.10;;;;;;;11.83;44.78;97417.84;4964993;28;20086;-58
2023/03/19 07:33:13;;;;;;;1.10;1.10;;;;;;;12.04;44.86;97426.56;4965226;28;20051;-63
2023/03/19 07:35:40;;;;;;;1.10;1.10;;;;;;;12.42;44.94;97501.44;4964563;28;20058;-63
2023/03/19 07:38:07;;;;;;;1.10;1.10;;;;;;;12.70;44.54;97485.19;4965176;28;20118;-62
2023/03/19 07:40:33;;;;;;;1.10;1.10;;;;;;;12.82;44.42;97492.53;4964530;28;20058;-57
2023/03/19 07:43:00;;;;;;;1.10;1.10;;;;;;;12.86;44.32;97490.59;4979487;28;20050;-63
2023/03/19 07:45:27;;;;;;;1.00;1.00;;;;;;;12.79;44.65;97488.50;4965030;28;20047;-63
2023/03/19 07:47:54;;;;;;;1.10;1.10;;;;;;;12.32;44.41;97440.91;4964628;28;20122;-63
2023/03/19 07:50:20;;;;;;;1.10;1.10;;;;;;;12.74;44.54;97499.94;4964899;28;20059;-63
2023/03/19 07:52:50;;;;;;;1.10;1.10;;;;;;;12.94;44.32;97495.91;4965145;28;20054;-56
2023/03/19 07:55:16;;;;;;;1.10;1.10;;;;;;;13.08;43.75;97489.78;4964291;28;20114;-57
2023/03/19 07:57:43;;;;;;;1.30;1.30;;;;;;;13.43;43.32;97495.84;4964712;28;20054;-56
2023/03/19 08:00:11;;;;;;;1.20;1.20;;;;;;;13.05;42.59;97413.47;4964412;28;20063;-58
2023/03/19 08:02:38;;;;;;;1.15;1.15;;;;;;;12.56;43.65;97384.94;4965594;28;20054;-56
2023/03/19 08:05:05;;;;;;;1.10;1.10;;;;;;;13.04;44.09;97495.28;4964538;28;20051;-62
2023/03/19 08:07:32;;;;;;;1.10;1.10;;;;;;;12.55;44.34;97411.09;4979591;28;20494;-56
2023/03/19 08:09:59;;;;;;;1.25;1.25;;;;;;;13.35;43.64;97489.38;4983354;28;20321;-57
2023/03/19 08:12:25;;;;;;;1.20;1.20;;;;;;;13.35;43.40;97483.81;4984459;28;20050;-62
2023/03/19 08:14:53;;;;;;;1.30;1.30;;;;;;;13.47;43.22;97485.53;4984195;28;20050;-62
2023/03/19 08:17:20;;;;;;;1.02;1.02;;;;;;;13.28;43.26;97433.63;4984395;28;20050;-57
2023/03/19 08:19:47;;;;;;;0.98;0.98;;;;;;;13.29;42.61;97415.75;4982826;28;20125;-64
2023/03/19 08:22:14;;;;;;;1.13;1.13;;;;;;;13.96;41.67;97479.78;4982670;28;20058;-57
2023/03/19 08:24:40;;;;;;;1.20;1.20;;;;;;;13.90;41.32;97425.56;4984126;28;20513;-57
2023/03/19 08:27:07;;;;;;;1.20;1.20;;;;;;;14.19;41.48;97470.06;4984258;28;20059;-62
2023/03/19 08:29:34;;;;;;;1.20;1.20;;;;;;;14.33;41.26;97467.44;4983770;28;20050;-61
2023/03/19 08:32:01;;;;;;;1.30;1.30;;;;;;;14.37;41.54;97462.69;4984498;28;20489;-57
2023/03/19 08:34:28;;;;;;;1.25;1.25;;;;;;;14.43;41.54;97463.13;4987794;28;20065;-64
2023/03/19 08:36:54;;;;;;;1.30;1.30;;;;;;;14.24;40.60;97397.25;4987838;28;20402;-56
2023/03/19 08:39:21;;;;;;;1.30;1.30;;;;;;;14.78;40.90;97466.19;4987545;28;20089;-64
2023/03/19 08:41:48;;;;;;;1.38;1.38;;;;;;;14.86;40.32;97479.00;4987620;28;20054;-62
2023/03/19 08:44:15;;;;;;;1.30;1.30;;;;;;;14.71;41.21;97457.78;4987003;28;20098;-61
2023/03/19 08:46:41;;;;;;;1.20;1.20;;;;;;;14.36;40.92;97410.09;4987253;28;20140;-62
2023/03/19 08:49:08;;;;;;;1.40;1.40;;;;;;;14.19;40.22;97360.59;4986096;28;20492;-58
2023/03/19 08:51:35;;;;;;;1.20;1.20;;;;;;;14.93;40.12;97467.91;5001740;28;20085;-56
2023/03/19 08:54:02;;;;;;;1.30;1.30;;;;;;;15.22;39.33;97497.59;4987178;28;20054;-61
2023/03/19 08:56:28;;;;;;;1.20;1.20;;;;;;;14.90;39.65;97457.53;4987353;28;20054;-62
2023/03/19 08:58:56;;;;;;;1.25;1.25;;;;;;;14.56;40.47;97442.13;4986252;28;20132;-56
2023/03/19 09:01:23;;;;;;;1.25;1.25;;;;;;;14.14;41.53;97447.31;4985980;28;20639;-62
2023/03/19 09:03:50;;;;;;;1.30;1.30;;;;;;;14.72;40.97;97435.09;5006234;28;20153;-56
2023/03/19 09:06:16;;;;;;;1.40;1.40;;;;;;;14.54;40.40;97377.59;4986248;28;20429;-56
2023/03/19 09:08:43;;;;;;;1.20;1.20;;;;;;;14.93;41.17;97423.28;4770116;28;5001525;-61
2023/03/19 09:11:10;;;;;;;1.45;1.45;;;;;;;14.99;40.38;97427.28;4994182;28;20523;-55
2023/03/19 09:13:37;;;;;;;1.40;1.40;;;;;;;15.18;40.57;97422.22;4987093;28;20459;-57
2023/03/19 09:16:04;;;;;;;1.52;1.52;;;;;;;15.28;40.63;97422.66;4986731;28;20050;-62
2023/03/19 09:18:32;;;;;;;1.30;1.30;;;;;;;15.54;40.04;97414.81;4986011;28;20056;-57
2023/03/19 09:20:59;;;;;;;1.60;1.60;;;;;;;15.66;39.92;97417.28;5005857;28;20065;-57
2023/03/19 09:23:26;;;;;;;1.50;1.50;;;;;;;15.72;40.00;97415.69;4988850;28;20508;-63
2023/03/19 09:25:53;;;;;;;1.30;1.30;;;;;;;14.67;40.62;97381.66;5006519;28;20085;-63
2023/03/19 09:28:21;;;;;;;1.40;1.40;;;;;;;14.66;41.08;97360.56;5006554;28;20054;-58
2023/03/19 09:30:50;;;;;;;1.40;1.40;;;;;;;15.06;40.50;97360.38;5006102;28;20267;-63
2023/03/19 09:33:18;;;;;;;1.50;1.50;;;;;;;15.56;39.91;97398.47;5006371;28;20097;-63
2023/03/19 09:35:51;;;;;;;1.50;1.50;;;;;;;14.97;40.99;97379.44;5006027;28;20050;-62
2023/03/19 09:38:21;;;;;;;1.50;1.50;;;;;;;15.34;40.84;97393.97;5006296;28;20197;-57
2023/03/19 09:40:58;;;;;;;1.30;1.30;;;;;;;15.39;39.89;97354.56;5006142;28;20081;-57
2023/03/19 09:43:49;;;;;;;1.55;1.55;;;;;;;15.72;39.85;97393.34;5006007;28;20115;-58
2023/03/19 09:46:28;;;;;;;1.50;1.50;;;;;;;16.15;39.52;97394.22;5006024;28;20057;-60
2023/03/19 09:49:02;;;;;;;1.50;1.50;;;;;;;16.35;39.19;97390.63;5006041;28;20137;-59
2023/03/19 09:51:40;;;;;;;1.60;1.60;;;;;;;16.31;38.73;97325.50;5004198;28;20445;-64
2023/03/19 09:54:26;;;;;;;1.30;1.30;;;;;;;16.89;38.42;97385.78;5005846;28;20472;-59
2023/03/19 09:56:53;;;;;;;1.30;1.30;;;;;;;16.47;38.75;97379.06;5004343;28;20096;-63
2023/03/19 09:59:26;;;;;;;1.48;1.48;;;;;;;16.27;39.90;97391.81;5005958;28;20058;-57
2023/03/19 10:01:57;;;;;;;1.30;1.30;;;;;;;16.24;39.29;97384.22;5006026;28;20436;-58
2023/03/19 10:04:48;;;;;;;1.40;1.40;;;;;;;16.81;38.89;97375.81;5005615;28;20088;-58
2023/03/19 10:07:21;;;;;;;1.70;1.70;;;;;;;17.17;38.22;97378.13;5005146;28;20099;-63
2023/03/19 10:10:01;;;;;;;1.50;1.50;;;;;;;17.47;37.52;97369.22;5000383;28;20113;-64
2023/03/19 10:13:09;;;;;;;1.50;1.50;;;;;;;17.82;37.27;97363.44;4985939;28;20501;-64
2023/03/19 10:15:39;;;;;;;1.50;1.50;;;;;;;18.03;36.54;97357.69;4985423;28;20441;-63
2023/03/19 10:18:23;;;;;;;1.58;1.58;;;;;;;18.16;36.30;97350.38;4986282;28;20100;-63
2023/03/19 10:21:01;;;;;;;1.70;1.70;;;;;;;18.45;36.49;97346.16;4985660;28;20663;-63
2023/03/19 10:23:45;;;;;;;1.70;1.70;;;;;;;18.39;36.37;97342.19;4985873;28;20325;-63
2023/03/19 10:26:14;;;;;;;;;;;;;;;18.61;36.03;97337.97;4986634;28;20142;-57
2023/03/19 10:28:44;;;;;;;1.58;1.58;;;;;;;18.43;35.90;97320.50;4985231;28;19926;-64
2023/03/19 10:31:34;;;;;;;1.60;1.60;;;;;;;18.57;36.16;97330.81;4985764;28;20054;-57
2023/03/19 10:34:21;;;;;;;1.67;1.67;;;;;;;18.77;35.45;97324.19;4985428;28;20057;-57
2023/03/19 10:36:48;;;;;;;1.70;1.70;;;;;;;18.83;35.26;97311.28;5000220;28;20579;-57
2023/03/19 10:39:17;;;;;;;1.70;1.70;;;;;;;18.77;36.07;97307.34;5000265;28;20113;-57
2023/03/19 10:42:04;;;;;;;2.00;2.00;;;;;;;19.13;34.94;97308.53;5000528;28;20181;-64
2023/03/19 10:44:35;;;;;;;1.83;1.83;;;;;;;19.14;34.83;97303.72;4985320;28;20503;-63
2023/03/19 10:47:11;;;;;;;1.92;1.92;;;;;;;19.20;34.80;97307.66;4985570;28;20090;-57
2023/03/19 10:49:38;;;;;;;2.05;2.05;;;;;;;17.69;36.08;97208.19;4985894;28;20058;-63
2023/03/19 10:52:15;;;;;;;1.85;1.85;;;;;;;18.08;36.45;97270.34;5000808;28;20541;-57
2023/03/19 10:54:44;;;;;;;1.80;1.80;;;;;;;18.63;36.21;97285.06;4985585;28;20093;-64
2023/03/19 10:57:26;;;;;;;1.75;1.75;;;;;;;19.04;35.64;97279.38;4999722;28;20064;-63
2023/03/19 10:59:53;;;;;;;1.92;1.92;;;;;;;19.10;35.41;97272.88;4974340;28;20046;-64
2023/03/19 11:02:22;;;;;;;1.80;1.80;;;;;;;18.94;35.52;97269.84;4964429;28;20441;-57
2023/03/19 11:05:21;;;;;;;1.92;1.92;;;;;;;18.72;35.38;97184.31;4965113;28;20043;-64
2023/03/19 11:07:50;;;;;;;1.88;1.88;;;;;;;19.28;35.27;97276.25;4964122;28;20054;-57
2023/03/19 11:10:18;;;;;;;1.80;1.80;;;;;;;19.42;34.87;97262.03;5000515;28;20435;-59
2023/03/19 11:12:50;;;;;;;1.70;1.70;;;;;;;19.65;35.03;97249.25;5003340;28;20197;-63
2023/03/19 11:15:21;;;;;;;2.00;2.00;;;;;;;19.60;34.67;97241.31;5004080;28;20056;-64
2023/03/19 11:17:56;;;;;;;2.00;2.00;;;;;;;19.21;34.77;97242.63;5004546;28;20116;-57
2023/03/19 11:20:32;;;;;;;1.90;1.90;;;;;;;19.40;34.96;97236.38;5004233;28;20046;-63
2023/03/19 11:23:06;;;;;;;1.80;1.80;;;;;;;19.61;34.99;97231.63;5004640;28;20137;-64
2023/03/19 11:25:46;;;;;;;1.85;1.85;;;;;;;19.78;34.61;97220.13;5019480;28;20050;-64
2023/03/19 11:28:15;;;;;;;1.80;1.80;;;;;;;19.42;34.45;97151.66;5004030;28;20093;-63
2023/03/19 11:30:54;;;;;;;2.00;2.00;;;;;;;19.99;34.22;97225.41;5004659;28;20464;-64
2023/03/19 11:33:50;;;;;;;1.77;1.77;;;;;;;20.03;34.68;97219.72;5004501;28;20061;-56
2023/03/19 11:36:54;;;;;;;2.00;2.00;;;;;;;20.10;34.53;97209.13;5004657;28;20093;-58
2023/03/19 11:39:20;;;;;;;;;;;;;;;20.02;34.78;97213.28;5003117;28;20428;-63
2023/03/19 11:42:24;;;;;;;1.90;1.90;;;;;;;19.89;35.09;97214.31;5004788;28;19925;-63
2023/03/19 11:44:56;;;;;;;1.90;1.90;;;;;;;19.91;34.55;97206.25;4998660;28;20117;-63
2023/03/19 11:47:31;;;;;;;1.92;1.92;;;;;;;20.05;34.31;97200.38;4965370;28;20098;-58
2023/03/19 11:49:57;;;;;;;2.08;2.08;;;;;;;20.11;33.88;97199.47;4963606;28;20174;-57